Terminal Aerodrome Forecast
Issued by NWS

Home | Current Version | Previous Version | Graphics & Text | Print | Product List | Glossary On
Versions: 1 2 3 4 5 6 7 8 9 10 11 12 13 14
000
FTUS43 KMPX 272300
TAFRWF
TAF
KRWF 272331Z 2800/2824 32013G22KT P6SM VCSH SCT030 BKN050
     FM280200 33010KT P6SM FEW025 BKN045
     FM280600 31005KT P6SM FEW040
     FM281500 33008KT P6SM SCT045=

USA.gov is the U.S. government's official web portal to all federal, state and local government web resources and services.